Data for 09/26/2015

Time Sea-Level Adjusted Pressure Absolute Pressure Temperature Relative Humidity Dew Point   
(mb) (inHg) (mb) (inHg) (C) (F) (%) (C) (F)
00:05 1018 30.06 847 25.01 19.3 66.7 29 1 33.9
00:10 1018 30.06 847 25.01 19 66.2 29 0.7 33.2
00:15 1018 30.06 847 25.01 19 66.2 29 0.5 32.9
00:20 1018 30.06 847 25.01 19.2 66.6 27 0 32
00:25 1018 30.06 847 25.01 19.7 67.5 27 0.4 32.6
00:30 1018 30.06 847 25.01 20.1 68.1 25 -0.7 30.8
00:35 1018 30.06 847 25.01 20.8 69.4 25 0 32.1
00:40 1018 30.06 847 25.01 21.2 70.1 24 -0.2 31.7
00:45 1018 30.06 847 25.01 21.1 70 26 1 33.8
00:50 1018 30.06 847 25.01 21.1 70 29 2.6 36.7
00:55 1018 30.06 847 25.01 19.9 67.8 27 0.6 33.1
01:00 1018 30.06 847 25.01 19.4 66.9 32 2.6 36.7
01:05 1018 30.06 847 25.01 18.7 65.7 30 0.8 33.5
01:10 1018 30.06 847 25.01 18.4 65.1 31 0.9 33.7
01:15 1018 30.06 847 25.01 18.1 64.6 32 1.5 34.6
01:20 1018 30.06 847 25.01 17.7 63.8 33 1.5 34.7
01:25 1018 30.06 847 25.01 17.2 63 38 2.9 37.3
01:30 1018 30.06 847 25.01 17 62.6 35 1.3 34.4
01:35 1018 30.06 847 25.01 16.7 62.1 38 2.3 36.2
01:40 1018 30.06 847 25.01 16.5 61.8 34 0.8 33.4
01:45 1018 30.06 847 25.01 17.1 62.7 32 0.6 33.1
01:50 1018 30.06 847 25.01 17.1 62.8 35 1.6 34.9
01:55 1018 30.06 847 25.01 16.9 62.3 35 1.3 34.4
02:00 1018 30.06 847 25.01 17 62.6 32 0.2 32.4
02:05 1018 30.06 847 25.01 17.3 63.1 32 0.7 33.3
02:10 1018 30.06 847 25.01 17.2 62.9 32 0.6 33.1
02:15 1018 30.06 847 25.01 17.1 62.7 34 1 33.8
02:20 1018 30.06 847 25.01 16.7 62 35 1.3 34.3
02:25 1018 30.06 847 25.01 16.4 61.5 35 1 33.9
02:30 1018 30.06 847 25.01 16.4 61.4 34 0.6 33.1
02:35 1018 30.06 847 25.01 16.3 61.3 36 1.3 34.4
02:40 1018 30.06 847 25.01 16 60.8 36 0.9 33.6
02:45 1018 30.06 847 25.01 16.3 61.3 35 0.8 33.5
02:50 1018 30.06 847 25.01 16.4 61.6 34 0.5 33
02:55 1018 30.06 847 25.01 16.7 62.1 34 0.8 33.5
03:00 1018 30.06 847 25.01 16.4 61.6 36 1.5 34.6
03:05 1018 30.06 847 25.01 16 60.8 36 1.1 34
03:10 1018 30.06 847 25.01 16 60.8 35 0.8 33.4
03:15 1018 30.06 847 25.01 16.1 60.9 36 1.1 34
03:20 1018 30.06 847 25.01 16.2 61.1 34 0.5 33
03:25 1018 30.06 847 25.01 16.7 62 33 0.5 32.9
03:30 1018 30.06 847 25.01 16.7 62 33 0.3 32.6
03:35 1018 30.06 847 25.01 16.8 62.2 33 0.7 33.3
03:40 1017 30.03 847 25.01 16.4 61.6 34 0.7 33.2
03:45 1017 30.03 847 25.01 16.5 61.6 34 0.7 33.2
03:50 1017 30.03 847 25.01 16.6 61.9 33 0.4 32.7
03:55 1017 30.03 847 25.01 16.6 61.9 34 0.7 33.2
04:00 1017 30.03 847 25.01 16.5 61.6 35 0.9 33.7
04:05 1017 30.03 847 25.01 16.4 61.5 34 0.5 32.9
04:10 1017 30.03 847 25.01 16.5 61.7 33 0.5 32.8
04:15 1017 30.03 847 25.01 16.6 61.9 34 0.8 33.4
04:20 1017 30.03 846 24.98 16.4 61.5 35 0.9 33.6
04:25 1017 30.03 846 24.98 16.2 61.2 35 0.8 33.4
04:30 1017 30.03 847 25.01 16.2 61.2 35 0.8 33.4
04:35 1017 30.03 847 25.01 16.2 61.1 35 0.9 33.6
04:40 1017 30.03 846 24.98 16.2 61.2 34 0.3 32.6
04:45 1017 30.03 847 25.01 16.6 61.8 33 0.5 32.8
04:50 1017 30.03 846 24.98 16.7 62 33 0.6 33.1
04:55 1017 30.03 846 24.98 16.6 61.9 34 0.9 33.5
05:00 1017 30.03 846 24.98 16.5 61.7 34 0.5 33
05:05 1017 30.03 846 24.98 16.6 61.8 34 0.8 33.4
05:10 1017 30.03 846 24.98 16.5 61.7 34 0.8 33.4
05:15 1017 30.03 846 24.98 16.4 61.5 35 1 33.8
05:20 1017 30.03 846 24.98 16.4 61.5 35 1 33.8
05:25 1017 30.03 846 24.98 16.4 61.5 36 1.3 34.3
05:30 1017 30.03 846 24.98 16.3 61.3 34 0.6 33.1
05:35 1017 30.03 846 24.98 16.5 61.7 34 0.6 33
05:40 1017 30.03 846 24.98 16.7 62.1 33 0.3 32.6
05:45 1017 30.03 846 24.98 17.2 62.9 32 0.4 32.8
05:50 1017 30.03 846 24.98 17.1 62.7 32 0.5 33
05:55 1017 30.03 846 24.98 17 62.6 35 1.6 34.8
06:00 1017 30.03 846 24.98 17 62.6 32 0.5 32.8
06:05 1017 30.03 846 24.98 17 62.7 34 1 33.8
06:10 1017 30.03 846 24.98 16.8 62.2 35 1.2 34.1
06:15 1017 30.03 846 24.98 16.8 62.2 34 0.9 33.7
06:20 1017 30.03 847 25.01 16.7 62 33 0.6 33.1
06:25 1017 30.03 847 25.01 16.8 62.2 36 1.7 35.1
06:30 1017 30.03 847 25.01 16.6 61.9 33 0.2 32.4
06:35 1017 30.03 847 25.01 16.9 62.3 34 1 33.9
06:40 1017 30.03 846 24.98 16.8 62.3 35 1.3 34.3
06:45 1017 30.03 846 24.98 16.6 61.8 38 2.1 35.8
06:50 1017 30.03 846 24.98 16.1 61 37 1.6 34.9
06:55 1017 30.03 846 24.98 16.1 61 37 1.4 34.6
07:00 1017 30.03 846 24.98 16.4 61.5 35 1.2 34.1
07:05 1017 30.03 846 24.98 16.6 61.9 35 1.3 34.3
07:10 1017 30.03 846 24.98 16.8 62.2 35 1.5 34.7
07:15 1017 30.03 846 24.98 16.7 62.1 36 1.7 35.1
07:20 1017 30.03 846 24.98 17 62.5 34 1.1 34
07:25 1017 30.03 846 24.98 17.2 63 33 1 33.8
07:30 1017 30.03 846 24.98 17.7 63.9 31 0.6 33
07:35 1017 30.03 846 24.98 18 64.4 33 1.5 34.6
07:40 1017 30.03 846 24.98 17.6 63.6 36 2.6 36.7
07:45 1017 30.03 846 24.98 17.1 62.8 37 2.3 36.1
07:50 1017 30.03 846 24.98 17 62.7 37 2.5 36.5
07:55 1017 30.03 846 24.98 17 62.6 33 0.9 33.7
08:00 1017 30.03 846 24.98 17.7 63.8 33 1.2 34.1
08:05 1017 30.03 846 24.98 17.8 64 33 1.2 34.2
08:10 1017 30.03 846 24.98 17.9 64.3 37 3.1 37.6
08:15 1017 30.03 846 24.98 18.1 64.5 31 0.9 33.5
08:20 1017 30.03 846 24.98 18.2 64.7 37 3.2 37.8
08:25 1017 30.03 846 24.98 17.5 63.4 37 2.9 37.2
08:30 1017 30.03 846 24.98 17.4 63.3 40 4 39.1
08:35 1017 30.03 846 24.98 17.5 63.4 37 2.9 37.1
08:40 1017 30.03 846 24.98 17.6 63.7 38 3.4 38.1
08:45 1017 30.03 846 24.98 18 64.4 37 3.3 37.9
08:50 1017 30.03 846 24.98 18.2 64.8 36 3.1 37.7
08:55 1017 30.03 846 24.98 18.6 65.5 38 4.1 39.4
09:00 1017 30.03 846 24.98 18.9 66 35 3.1 37.5
09:05 1017 30.03 847 25.01 20 68 35 4.3 39.7
09:10 1017 30.03 846 24.98 20.1 68.1 35 4.4 39.8
09:15 1017 30.03 846 24.98 19.7 67.4 33 3.2 37.7
09:20 1017 30.03 846 24.98 20 68 35 4.1 39.3
09:25 1017 30.03 846 24.98 20.6 69 34 4.3 39.8
09:30 1017 30.03 846 24.98 21.2 70.1 32 4.1 39.3
09:35 1017 30.03 846 24.98 21.5 70.6 35 5.5 41.9
09:40 1017 30.03 846 24.98 21.5 70.8 33 5 40.9
09:45 1017 30.03 846 24.98 21.7 71 32 4.5 40.1
09:50 1017 30.03 846 24.98 22.2 72 29 3.7 38.7
09:55 1017 30.03 846 24.98 22.6 72.6 29 3.7 38.6
10:00 1017 30.03 846 24.98 23 73.3 26 2.8 37
10:05 1017 30.03 846 24.98 23.5 74.3 26 3.1 37.5
10:10 1017 30.03 846 24.98 24 75.2 25 2.8 37
10:15 1017 30.03 846 24.98 24.1 75.4 26 3.6 38.4
10:20 1017 30.03 846 24.98 24 75.1 27 3.8 38.9
10:25 1017 30.03 846 24.98 23.7 74.7 27 3.8 38.9
10:30 1016 30 846 24.98 24.1 75.4 25 3 37.3
10:35 1016 30 846 24.98 24.3 75.7 24 2.7 36.9
10:40 1016 30 846 24.98 24.5 76.2 24 2.8 37.1
10:45 1016 30 846 24.98 24.8 76.7 23 2.3 36.1
10:50 1016 30 845 24.95 25.7 78.3 20 1.4 34.5
10:55 1016 30 845 24.95 26.4 79.6 20 1.7 35.1
11:00 1016 30 845 24.95 26.8 80.2 19 1.8 35.2
11:05 1016 30 845 24.95 28 82.5 17 1.2 34.2
11:10 1016 30 845 24.95 29 84.2 17 1.8 35.3
11:15 1016 30 845 24.95 29.4 85 15 0.7 33.2
11:20 1016 30 845 24.95 29.6 85.4 15 0.8 33.5
11:25 1016 30 845 24.95 29.1 84.4 15 0.4 32.8
11:30 1016 30 845 24.95 28.9 84 16 0.5 32.9
11:35 1016 30 845 24.95 28.1 82.5 16 0.5 32.8
11:40 1016 30 845 24.95 28.1 82.5 16 0 32
11:45 1016 30 845 24.95 29.1 84.4 17 1.8 35.2
11:50 1016 30 845 24.95 29.2 84.5 16 1.3 34.4
11:55 1016 30 845 24.95 28.8 83.9 18 2.2 35.9
12:00 1016 30 845 24.95 28.2 82.7 14 -1.1 30
12:05 1015 29.97 845 24.95 27.9 82.3 20 3.2 37.7
12:10 1015 29.97 845 24.95 27.6 81.8 24 5.6 42.1
12:15 1015 29.97 845 24.95 26.8 80.3 25 5.2 41.4
12:20 1015 29.97 845 24.95 26.3 79.4 24 4.4 39.9
12:25 1015 29.97 845 24.95 26.1 79 25 4.6 40.2
12:30 1015 29.97 845 24.95 26.1 78.9 23 3.8 38.9
12:35 1015 29.97 845 24.95 25.4 77.7 25 4.3 39.8
12:40 1015 29.97 844 24.92 25.4 77.8 26 4.7 40.5
12:45 1015 29.97 844 24.92 25.3 77.5 27 5.1 41.2
12:50 1015 29.97 845 24.95 25.3 77.6 28 5.6 42
12:55 1015 29.97 845 24.95 25.4 77.7 28 5.7 42.2
13:00 1015 29.97 844 24.92 25.2 77.3 28 5.7 42.2
13:05 1015 29.97 844 24.92 25 76.9 30 6.4 43.6
13:10 1015 29.97 844 24.92 25.1 77.1 29 5.8 42.5
13:15 1015 29.97 844 24.92 24.8 76.7 28 5.4 41.8
13:20 1015 29.97 844 24.92 25.1 77.3 27 4.9 40.8
13:25 1015 29.97 844 24.92 25.1 77.2 25 4 39.1
13:30 1015 29.97 844 24.92 25.6 78.1 22 2.7 36.9
13:35 1015 29.97 844 24.92 26.9 80.4 20 2.6 36.7
13:40 1015 29.97 844 24.92 27.1 80.8 21 3 37.4
13:45 1015 29.97 844 24.92 26.8 80.3 21 2.8 37.1
13:50 1015 29.97 844 24.92 26.7 80.1 22 3.3 37.9
13:55 1015 29.97 844 24.92 26.7 80 22 3.2 37.8
14:00 1015 29.97 844 24.92 26.1 79 23 3.6 38.4
14:05 1015 29.97 844 24.92 25.9 78.6 22 2.9 37.2
14:10 1014 29.94 844 24.92 26.4 79.5 22 3.1 37.5
14:15 1014 29.94 844 24.92 26.9 80.4 20 2.3 36.2
14:20 1014 29.94 844 24.92 27.1 80.8 20 2.4 36.3
14:25 1014 29.94 844 24.92 26.8 80.3 20 2 35.6
14:30 1014 29.94 844 24.92 27 80.5 19 1.8 35.2
14:35 1014 29.94 843 24.89 27.1 80.8 19 1.9 35.5
14:40 1014 29.94 843 24.89 26.9 80.3 19 1.6 34.9
14:45 1014 29.94 843 24.89 26.4 79.6 20 2 35.6
14:50 1014 29.94 843 24.89 26.4 79.5 20 2.1 35.8
14:55 1014 29.94 843 24.89 27 80.6 20 2.2 36
15:00 1014 29.94 843 24.89 27 80.7 21 2.9 37.2
15:05 1014 29.94 843 24.89 27.5 81.5 19 2.1 35.8
15:10 1014 29.94 843 24.89 27.9 82.1 19 2.1 35.8
15:15 1014 29.94 843 24.89 27.6 81.6 19 2.2 35.9
15:20 1014 29.94 843 24.89 27.5 81.5 19 2.3 36.1
15:25 1014 29.94 843 24.89 27.4 81.3 19 2 35.6
15:30 1014 29.94 843 24.89 28.3 83 17 1 33.8
15:35 1014 29.94 843 24.89 28.6 83.6 19 2.7 36.9
15:40 1014 29.94 843 24.89 28 82.4 18 2.1 35.8
15:45 1013 29.91 843 24.89 27.7 81.8 17 0.4 32.7
15:50 1013 29.91 843 24.89 27.5 81.5 17 0.6 33
15:55 1013 29.91 843 24.89 27.2 81 18 1.5 34.7
16:00 1013 29.91 843 24.89 27 80.5 18 1 33.8
16:05 1013 29.91 843 24.89 26.9 80.3 23 4.2 39.6
16:10 1013 29.91 843 24.89 26.4 79.5 22 3 37.4
16:15 1013 29.91 843 24.89 26 78.8 23 3.6 38.5
16:20 1013 29.91 842 24.86 25.7 78.2 23 3.5 38.3
16:25 1013 29.91 842 24.86 25.6 78.1 23 3 37.5
16:30 1013 29.91 842 24.86 25.9 78.5 20 1.5 34.8
16:35 1013 29.91 843 24.89 26 78.9 20 1.7 35.1
16:40 1014 29.94 843 24.89 25.9 78.7 20 1.8 35.3
16:45 1014 29.94 843 24.89 25.9 78.7 20 1.6 35
16:50 1014 29.94 843 24.89 25.7 78.3 20 1.4 34.6
16:55 1014 29.94 843 24.89 25.6 78.1 21 1.6 34.9
17:00 1014 29.94 843 24.89 25.5 77.8 21 1.5 34.8
17:05 1014 29.94 843 24.89 25.4 77.7 21 1.5 34.7
17:10 1014 29.94 843 24.89 25.3 77.5 21 1.9 35.4
17:15 1014 29.94 843 24.89 24.8 76.6 22 2.1 35.7
17:20 1014 29.94 843 24.89 24.7 76.4 23 2.3 36.1
17:25 1014 29.94 843 24.89 24.3 75.8 24 2.6 36.6
17:30 1014 29.94 843 24.89 24 75.2 25 2.9 37.2
17:35 1014 29.94 843 24.89 23.8 74.8 24 2.4 36.3
17:40 1014 29.94 843 24.89 23.8 74.8 24 2.5 36.4
17:45 1014 29.94 843 24.89 23.9 75 24 2.5 36.5
17:50 1014 29.94 843 24.89 23.9 74.9 23 1.8 35.3
17:55 1014 29.94 843 24.89 24.4 75.9 20 0.2 32.3
18:00 1014 29.94 844 24.92 24.8 76.7 22 1.9 35.5
18:05 1015 29.97 844 24.92 24.3 75.7 24 2.5 36.5
18:10 1015 29.97 844 24.92 23.9 75.1 24 2.5 36.6
18:15 1015 29.97 844 24.92 23.8 74.8 25 2.6 36.7
18:20 1014 29.94 844 24.92 23.7 74.6 24 1.9 35.5
18:25 1014 29.94 844 24.92 23.7 74.6 24 2.1 35.8
18:30 1015 29.97 844 24.92 23.7 74.6 23 1.8 35.3
18:35 1015 29.97 844 24.92 23.3 74 26 3.1 37.5
18:40 1015 29.97 844 24.92 23 73.3 28 3.6 38.5
18:45 1015 29.97 844 24.92 22.7 72.8 29 3.9 39
18:50 1015 29.97 844 24.92 22.5 72.5 28 3.3 37.9
18:55 1015 29.97 844 24.92 22.6 72.6 28 3.3 37.9
19:00 1015 29.97 844 24.92 22.4 72.4 29 3.5 38.3
19:05 1015 29.97 845 24.95 22.1 71.9 31 4.4 40
19:10 1015 29.97 845 24.95 21.5 70.6 33 4.7 40.4
19:15 1015 29.97 845 24.95 21.4 70.5 31 3.6 38.4
19:20 1015 29.97 844 24.92 21.9 71.5 29 3.4 38.2
19:25 1015 29.97 844 24.92 22.1 71.7 28 3 37.4
19:30 1015 29.97 844 24.92 22.6 72.6 26 2.4 36.3
19:35 1015 29.97 844 24.92 22.8 73 27 3 37.5
19:40 1015 29.97 844 24.92 22.4 72.4 28 3.4 38.1
19:45 1015 29.97 844 24.92 22 71.7 31 4.1 39.5
19:50 1015 29.97 844 24.92 21.3 70.3 32 4 39.3
19:55 1015 29.97 844 24.92 21.1 69.9 31 3.5 38.3
20:00 1015 29.97 844 24.92 21.3 70.3 30 3.3 38
20:05 1015 29.97 844 24.92 21.5 70.6 29 3 37.3
20:10 1015 29.97 844 24.92 21.7 71.1 28 2.9 37.2
20:15 1015 29.97 844 24.92 21.9 71.3 29 3.1 37.5
20:20 1015 29.97 844 24.92 21.8 71.2 28 2.6 36.8
20:25 1015 29.97 844 24.92 22 71.6 26 1.6 34.9
20:30 1015 29.97 844 24.92 22.2 71.9 28 3.2 37.7
20:35 1015 29.97 844 24.92 21.6 70.8 31 3.8 38.9
20:40 1015 29.97 844 24.92 21 69.7 31 3.3 37.9
20:45 1015 29.97 844 24.92 20.9 69.5 30 3 37.4
20:50 1015 29.97 844 24.92 20.8 69.5 31 3.4 38.1
20:55 1015 29.97 844 24.92 20.5 68.8 32 3.5 38.3
21:00 1015 29.97 844 24.92 20.2 68.4 33 3.6 38.5
21:05 1015 29.97 844 24.92 20 68 34 3.9 39
21:10 1015 29.97 844 24.92 19.6 67.3 35 4 39.2
21:15 1015 29.97 844 24.92 19.3 66.7 37 4.5 40.1
21:20 1015 29.97 845 24.95 18.6 65.5 40 5 41
21:25 1015 29.97 845 24.95 18 64.5 43 5.3 41.6
21:30 1016 30 845 24.95 17.4 63.3 40 3.9 39
21:35 1016 30 845 24.95 17.6 63.6 38 3.3 38
21:40 1016 30 845 24.95 17.5 63.6 39 3.6 38.4
21:45 1016 30 845 24.95 17.3 63.2 35 2 35.6
21:50 1016 30 845 24.95 17.6 63.7 33 1.1 34
21:55 1016 30 845 24.95 17.4 63.3 37 2.7 36.9
22:00 1016 30 846 24.98 16.8 62.2 38 2.3 36.2
22:05 1016 30 846 24.98 16.8 62.2 36 1.9 35.4
22:10 1017 30.03 846 24.98 17.5 63.4 34 1.4 34.6
22:15 1017 30.03 846 24.98 17.6 63.7 33 1.1 34
22:20 1017 30.03 846 24.98 17.6 63.6 33 1 33.9
22:25 1017 30.03 846 24.98 17.4 63.3 32 0.7 33.3
22:30 1017 30.03 846 24.98 17.3 63.2 31 0.1 32.1
22:35 1017 30.03 846 24.98 17.4 63.3 31 0.2 32.3
22:40 1017 30.03 846 24.98 17.2 63 31 0.2 32.3
22:45 1017 30.03 846 24.98 17.2 62.9 31 -0.2 31.7
22:50 1017 30.03 846 24.98 17.1 62.7 32 0.3 32.5
22:55 1017 30.03 846 24.98 16.6 61.9 32 0.1 32.2
23:00 1017 30.03 847 25.01 16.4 61.4 33 0.1 32.1
23:05 1017 30.03 847 25.01 16.2 61.2 33 0.1 32.1
23:10 1017 30.03 847 25.01 16.1 61 33 0.1 32.2
23:15 1017 30.03 847 25.01 16 60.7 34 0.2 32.4
23:20 1017 30.03 847 25.01 15.7 60.3 35 0.4 32.7
23:25 1018 30.06 847 25.01 15.5 59.9 36 0.4 32.7
23:30 1018 30.06 847 25.01 15.5 59.8 36 0.5 33
23:35 1018 30.06 847 25.01 15.4 59.8 36 0.7 33.2
23:40 1018 30.06 847 25.01 15.3 59.6 36 0.6 33.1
23:45 1018 30.06 847 25.01 15.2 59.3 37 0.9 33.5
23:50 1018 30.06 847 25.01 15 58.9 38 0.9 33.7
23:55 1018 30.06 847 25.01 14.8 58.7 39 1.1 34
24:00 1018 30.06 847 25.01 14.4 57.9 42 1.8 35.3